Timimoun Airport

DAUT · Adrar, 阿尔及利亚

METAR DAUT · Timimoun Airport

23 六月 22:00 LT
58m
罗盘
风向 的 风向 050° Timimoun Airport 6/24
风: 3 kt, 1 beaufort

3 kt

改变
0 ft 1.000 2.000 3.000 4.000 5.000
CAVOK
METAR DAUT 232100Z 05003KT CAVOK 36/M01 Q1006

METAR Timimoun Airport - DAUT/TMX

Timimoun Airport是,阿尔及利亚中的中型机场。 该机场位于纬度29,23670和经度0,27598。 该机场有一条跑道: 6/24. 本场的ICAO机场代码为DAUT。 该机场的IATA代码为TMX。 机场在Alger FIR中。

该航空气象观测是针对Timimoun Airport在2024年6月23日 22:00, 当地时间进行的。

机场观察

风向为050°,速度为3 kt。

天气为CAVOK。这意味着在5.000 ft或MSA(最低安全高度)以下(以较高者为准)以下没有云。这也意味着没有观测到积雨云或高耸的积云,可见度为10 km 或者更多或更高。此外,不会有雾,降雨或其他重要天气。

温度和风寒是36 °C。 露点为-1 °C,相对湿度为9%。 海平面上的气压为1006 hPa (QNH)。

白天

今天,太阳从06:00升起,在20:01降落。 这适用于Timimoun Airport,世界夏令时可能有所不同。 当地时间与世界标准时间之间的时差为+1 小时。 夏令时目前正在进行中。

公司介绍

我们没有关于这个机场的公司信息。

体会

到Vliegles.nl去找飞行课程,跳伞和其他飞行体验。 浏览页面,了解Timimoun Airport附近所有可用的活动。 你也可以使用搜索功能来寻找你所在地附近的特定飞行课程、跳伞或其他飞行体验。

跑道

Id 标题 侧风 逆风 侧风 %
6/24 056°-236° 3 kt 10 %

逆风成分最大的方向会被突出显示,并用于横风计算。 这并不一定意味着这个方向在使用。

温度 & 天气

温度 36 °C
露点 -1 °C
相对湿度 9%
Kp-index 0 (0-9)

白天

日出
06:00 (7:02)
中午
13:01
日落
20:01

小工具

你想在你的网站上有一个关于Timimoun Airport的当前航空天气(METAR)的小部件吗?

显示HTML代码
报告变更